sensor_id;sensor_type;location;lat;lon;timestamp;P1;durP1;ratioP1;P2;durP2;ratioP2
33327;SDS011;19692;52.998;9.116;2023-12-22T00:01:09;13.17;;;3.30;;
33327;SDS011;19692;52.998;9.116;2023-12-22T00:03:36;8.80;;;3.07;;
33327;SDS011;19692;52.998;9.116;2023-12-22T00:06:02;7.47;;;2.50;;
33327;SDS011;19692;52.998;9.116;2023-12-22T00:08:28;10.27;;;3.00;;
33327;SDS011;19692;52.998;9.116;2023-12-22T00:10:54;9.80;;;2.67;;
33327;SDS011;19692;52.998;9.116;2023-12-22T00:13:19;11.97;;;3.57;;
33327;SDS011;19692;52.998;9.116;2023-12-22T00:15:45;12.53;;;3.23;;
33327;SDS011;19692;52.998;9.116;2023-12-22T00:18:11;12.43;;;3.07;;
33327;SDS011;19692;52.998;9.116;2023-12-22T00:20:36;11.00;;;2.80;;
33327;SDS011;19692;52.998;9.116;2023-12-22T00:23:02;12.03;;;3.40;;
33327;SDS011;19692;52.998;9.116;2023-12-22T00:25:28;7.93;;;2.90;;
33327;SDS011;19692;52.998;9.116;2023-12-22T00:27:54;8.37;;;2.47;;
33327;SDS011;19692;52.998;9.116;2023-12-22T00:30:19;13.17;;;3.53;;
33327;SDS011;19692;52.998;9.116;2023-12-22T00:32:45;9.30;;;3.00;;
33327;SDS011;19692;52.998;9.116;2023-12-22T00:35:11;9.87;;;3.00;;
33327;SDS011;19692;52.998;9.116;2023-12-22T00:37:36;11.40;;;2.87;;
33327;SDS011;19692;52.998;9.116;2023-12-22T00:40:02;7.63;;;3.27;;
33327;SDS011;19692;52.998;9.116;2023-12-22T00:42:32;12.00;;;3.10;;
33327;SDS011;19692;52.998;9.116;2023-12-22T00:44:57;12.10;;;3.83;;
33327;SDS011;19692;52.998;9.116;2023-12-22T00:47:23;8.10;;;2.93;;
33327;SDS011;19692;52.998;9.116;2023-12-22T00:49:49;15.40;;;3.10;;
33327;SDS011;19692;52.998;9.116;2023-12-22T00:52:14;10.47;;;3.10;;
33327;SDS011;19692;52.998;9.116;2023-12-22T00:54:40;8.10;;;2.43;;
33327;SDS011;19692;52.998;9.116;2023-12-22T00:57:06;13.50;;;2.70;;
33327;SDS011;19692;52.998;9.116;2023-12-22T00:59:31;10.67;;;3.27;;
33327;SDS011;19692;52.998;9.116;2023-12-22T01:01:57;13.30;;;2.70;;
33327;SDS011;19692;52.998;9.116;2023-12-22T01:04:23;7.67;;;2.10;;
33327;SDS011;19692;52.998;9.116;2023-12-22T01:06:49;5.87;;;2.10;;
33327;SDS011;19692;52.998;9.116;2023-12-22T01:09:14;7.40;;;2.33;;
33327;SDS011;19692;52.998;9.116;2023-12-22T01:11:40;9.20;;;3.30;;
33327;SDS011;19692;52.998;9.116;2023-12-22T01:14:06;9.33;;;2.70;;
33327;SDS011;19692;52.998;9.116;2023-12-22T01:16:32;10.13;;;2.97;;
33327;SDS011;19692;52.998;9.116;2023-12-22T01:18:58;9.77;;;2.77;;
33327;SDS011;19692;52.998;9.116;2023-12-22T01:21:24;11.67;;;2.70;;
33327;SDS011;19692;52.998;9.116;2023-12-22T01:23:50;11.17;;;3.30;;
33327;SDS011;19692;52.998;9.116;2023-12-22T01:26:15;10.63;;;3.10;;
33327;SDS011;19692;52.998;9.116;2023-12-22T01:28:41;13.03;;;3.30;;
33327;SDS011;19692;52.998;9.116;2023-12-22T01:31:07;15.03;;;3.20;;
33327;SDS011;19692;52.998;9.116;2023-12-22T01:33:32;11.03;;;3.07;;
33327;SDS011;19692;52.998;9.116;2023-12-22T01:35:58;10.07;;;2.90;;
33327;SDS011;19692;52.998;9.116;2023-12-22T01:38:24;17.00;;;3.27;;
33327;SDS011;19692;52.998;9.116;2023-12-22T01:40:50;9.97;;;2.70;;
33327;SDS011;19692;52.998;9.116;2023-12-22T01:43:15;14.67;;;3.80;;
33327;SDS011;19692;52.998;9.116;2023-12-22T01:45:46;11.67;;;3.07;;
33327;SDS011;19692;52.998;9.116;2023-12-22T01:48:14;8.83;;;2.57;;
33327;SDS011;19692;52.998;9.116;2023-12-22T01:50:40;9.03;;;2.50;;
33327;SDS011;19692;52.998;9.116;2023-12-22T01:53:06;10.27;;;2.57;;
33327;SDS011;19692;52.998;9.116;2023-12-22T01:55:32;9.43;;;2.73;;
33327;SDS011;19692;52.998;9.116;2023-12-22T01:57:59;10.07;;;2.60;;
33327;SDS011;19692;52.998;9.116;2023-12-22T02:00:25;6.27;;;2.13;;
33327;SDS011;19692;52.998;9.116;2023-12-22T02:02:51;10.27;;;2.97;;
33327;SDS011;19692;52.998;9.116;2023-12-22T02:05:17;8.63;;;2.90;;
33327;SDS011;19692;52.998;9.116;2023-12-22T02:07:43;8.73;;;2.90;;
33327;SDS011;19692;52.998;9.116;2023-12-22T02:10:10;7.53;;;2.40;;
33327;SDS011;19692;52.998;9.116;2023-12-22T02:12:36;10.13;;;3.97;;
33327;SDS011;19692;52.998;9.116;2023-12-22T02:15:02;13.77;;;3.10;;
33327;SDS011;19692;52.998;9.116;2023-12-22T02:20:31;9.43;;;2.53;;
33327;SDS011;19692;52.998;9.116;2023-12-22T02:22:57;7.57;;;2.60;;
33327;SDS011;19692;52.998;9.116;2023-12-22T02:25:23;7.33;;;2.00;;
33327;SDS011;19692;52.998;9.116;2023-12-22T02:27:50;5.53;;;2.43;;
33327;SDS011;19692;52.998;9.116;2023-12-22T02:30:22;5.33;;;2.10;;
33327;SDS011;19692;52.998;9.116;2023-12-22T02:33:23;6.60;;;2.47;;
33327;SDS011;19692;52.998;9.116;2023-12-22T02:35:51;4.30;;;2.10;;
33327;SDS011;19692;52.998;9.116;2023-12-22T02:38:23;6.93;;;2.00;;
33327;SDS011;19692;52.998;9.116;2023-12-22T02:40:50;8.53;;;2.33;;
33327;SDS011;19692;52.998;9.116;2023-12-22T02:43:16;6.77;;;2.97;;
33327;SDS011;19692;52.998;9.116;2023-12-22T02:45:42;8.43;;;1.67;;
33327;SDS011;19692;52.998;9.116;2023-12-22T02:48:07;6.03;;;1.63;;
33327;SDS011;19692;52.998;9.116;2023-12-22T02:50:33;5.57;;;1.97;;
33327;SDS011;19692;52.998;9.116;2023-12-22T02:52:59;6.17;;;1.90;;
33327;SDS011;19692;52.998;9.116;2023-12-22T02:55:25;5.20;;;1.63;;
33327;SDS011;19692;52.998;9.116;2023-12-22T02:57:51;7.80;;;2.10;;
33327;SDS011;19692;52.998;9.116;2023-12-22T03:00:16;4.00;;;2.27;;
33327;SDS011;19692;52.998;9.116;2023-12-22T03:02:42;3.33;;;3.03;;
33327;SDS011;19692;52.998;9.116;2023-12-22T03:05:08;8.97;;;3.03;;
33327;SDS011;19692;52.998;9.116;2023-12-22T03:07:34;8.23;;;4.03;;
33327;SDS011;19692;52.998;9.116;2023-12-22T03:10:00;7.90;;;3.43;;
33327;SDS011;19692;52.998;9.116;2023-12-22T03:12:25;6.77;;;3.40;;
33327;SDS011;19692;52.998;9.116;2023-12-22T03:14:51;12.07;;;4.03;;
33327;SDS011;19692;52.998;9.116;2023-12-22T03:17:17;9.03;;;3.70;;
33327;SDS011;19692;52.998;9.116;2023-12-22T03:19:42;10.63;;;4.30;;
33327;SDS011;19692;52.998;9.116;2023-12-22T03:22:08;11.00;;;3.83;;
33327;SDS011;19692;52.998;9.116;2023-12-22T03:24:34;10.93;;;4.87;;
33327;SDS011;19692;52.998;9.116;2023-12-22T03:27:02;9.93;;;4.00;;
33327;SDS011;19692;52.998;9.116;2023-12-22T03:29:27;18.70;;;4.63;;
33327;SDS011;19692;52.998;9.116;2023-12-22T03:31:53;16.53;;;4.80;;
33327;SDS011;19692;52.998;9.116;2023-12-22T03:34:19;18.53;;;4.80;;
33327;SDS011;19692;52.998;9.116;2023-12-22T03:36:45;15.67;;;4.60;;
33327;SDS011;19692;52.998;9.116;2023-12-22T03:39:13;12.77;;;4.30;;
33327;SDS011;19692;52.998;9.116;2023-12-22T03:41:40;11.73;;;4.57;;
33327;SDS011;19692;52.998;9.116;2023-12-22T03:44:06;8.63;;;4.20;;
33327;SDS011;19692;52.998;9.116;2023-12-22T03:46:32;9.50;;;3.97;;
33327;SDS011;19692;52.998;9.116;2023-12-22T03:48:58;13.33;;;4.23;;
33327;SDS011;19692;52.998;9.116;2023-12-22T03:51:24;9.83;;;4.27;;
33327;SDS011;19692;52.998;9.116;2023-12-22T03:53:49;13.20;;;4.80;;
33327;SDS011;19692;52.998;9.116;2023-12-22T03:56:15;13.50;;;4.60;;
33327;SDS011;19692;52.998;9.116;2023-12-22T03:58:41;11.97;;;4.30;;
33327;SDS011;19692;52.998;9.116;2023-12-22T04:01:06;15.03;;;4.50;;
33327;SDS011;19692;52.998;9.116;2023-12-22T04:03:33;13.53;;;4.03;;
33327;SDS011;19692;52.998;9.116;2023-12-22T04:06:01;15.77;;;4.63;;
33327;SDS011;19692;52.998;9.116;2023-12-22T04:08:28;15.90;;;4.33;;
33327;SDS011;19692;52.998;9.116;2023-12-22T04:10:54;9.77;;;3.83;;
33327;SDS011;19692;52.998;9.116;2023-12-22T04:13:19;9.17;;;4.33;;
33327;SDS011;19692;52.998;9.116;2023-12-22T04:15:45;6.70;;;3.33;;
33327;SDS011;19692;52.998;9.116;2023-12-22T04:18:11;9.87;;;3.20;;
33327;SDS011;19692;52.998;9.116;2023-12-22T04:20:36;7.23;;;3.00;;
33327;SDS011;19692;52.998;9.116;2023-12-22T04:23:02;9.93;;;3.77;;
33327;SDS011;19692;52.998;9.116;2023-12-22T04:25:28;10.83;;;4.07;;
33327;SDS011;19692;52.998;9.116;2023-12-22T04:27:54;6.60;;;3.80;;
33327;SDS011;19692;52.998;9.116;2023-12-22T04:30:20;11.10;;;3.93;;
33327;SDS011;19692;52.998;9.116;2023-12-22T04:32:45;12.63;;;3.70;;
33327;SDS011;19692;52.998;9.116;2023-12-22T04:35:11;7.47;;;4.00;;
33327;SDS011;19692;52.998;9.116;2023-12-22T04:37:37;10.90;;;3.97;;
33327;SDS011;19692;52.998;9.116;2023-12-22T04:40:03;7.70;;;3.20;;
33327;SDS011;19692;52.998;9.116;2023-12-22T04:42:29;7.97;;;3.57;;
33327;SDS011;19692;52.998;9.116;2023-12-22T04:44:55;9.03;;;3.50;;
33327;SDS011;19692;52.998;9.116;2023-12-22T04:47:20;8.40;;;4.33;;
33327;SDS011;19692;52.998;9.116;2023-12-22T04:49:46;10.20;;;3.50;;
33327;SDS011;19692;52.998;9.116;2023-12-22T04:52:12;15.23;;;5.00;;
33327;SDS011;19692;52.998;9.116;2023-12-22T04:54:38;13.43;;;4.40;;
33327;SDS011;19692;52.998;9.116;2023-12-22T04:57:04;15.10;;;4.30;;
33327;SDS011;19692;52.998;9.116;2023-12-22T04:59:29;11.10;;;4.97;;
33327;SDS011;19692;52.998;9.116;2023-12-22T05:01:55;14.13;;;4.63;;
33327;SDS011;19692;52.998;9.116;2023-12-22T05:04:21;11.43;;;4.30;;
33327;SDS011;19692;52.998;9.116;2023-12-22T05:06:47;18.37;;;5.07;;
33327;SDS011;19692;52.998;9.116;2023-12-22T05:09:13;18.27;;;5.03;;
33327;SDS011;19692;52.998;9.116;2023-12-22T05:11:41;16.17;;;5.10;;
33327;SDS011;19692;52.998;9.116;2023-12-22T05:14:07;16.87;;;4.73;;
33327;SDS011;19692;52.998;9.116;2023-12-22T05:16:32;14.30;;;4.43;;
33327;SDS011;19692;52.998;9.116;2023-12-22T05:18:58;21.00;;;5.53;;
33327;SDS011;19692;52.998;9.116;2023-12-22T05:21:25;18.63;;;4.73;;
33327;SDS011;19692;52.998;9.116;2023-12-22T05:23:50;16.60;;;4.93;;
33327;SDS011;19692;52.998;9.116;2023-12-22T05:26:20;20.37;;;4.90;;
33327;SDS011;19692;52.998;9.116;2023-12-22T05:28:46;12.60;;;4.57;;
33327;SDS011;19692;52.998;9.116;2023-12-22T05:31:12;14.00;;;5.17;;
33327;SDS011;19692;52.998;9.116;2023-12-22T05:33:38;9.37;;;3.40;;
33327;SDS011;19692;52.998;9.116;2023-12-22T05:36:03;13.63;;;2.90;;
33327;SDS011;19692;52.998;9.116;2023-12-22T05:38:30;14.57;;;2.97;;
33327;SDS011;19692;52.998;9.116;2023-12-22T05:40:56;11.27;;;3.30;;
33327;SDS011;19692;52.998;9.116;2023-12-22T05:43:22;15.97;;;3.73;;
33327;SDS011;19692;52.998;9.116;2023-12-22T05:45:48;9.73;;;3.60;;
33327;SDS011;19692;52.998;9.116;2023-12-22T05:48:13;14.10;;;3.83;;
33327;SDS011;19692;52.998;9.116;2023-12-22T05:50:39;11.93;;;3.30;;
33327;SDS011;19692;52.998;9.116;2023-12-22T05:53:05;12.37;;;3.03;;
33327;SDS011;19692;52.998;9.116;2023-12-22T05:55:30;14.13;;;3.37;;
33327;SDS011;19692;52.998;9.116;2023-12-22T05:57:56;9.47;;;3.23;;
33327;SDS011;19692;52.998;9.116;2023-12-22T06:00:22;11.53;;;3.53;;
33327;SDS011;19692;52.998;9.116;2023-12-22T06:02:48;9.57;;;3.07;;
33327;SDS011;19692;52.998;9.116;2023-12-22T06:05:14;18.17;;;3.53;;
33327;SDS011;19692;52.998;9.116;2023-12-22T06:07:40;9.03;;;2.70;;
33327;SDS011;19692;52.998;9.116;2023-12-22T06:10:06;8.93;;;3.27;;
33327;SDS011;19692;52.998;9.116;2023-12-22T06:12:34;7.33;;;2.30;;
33327;SDS011;19692;52.998;9.116;2023-12-22T06:15:00;8.43;;;2.60;;
33327;SDS011;19692;52.998;9.116;2023-12-22T06:17:26;9.30;;;3.07;;
33327;SDS011;19692;52.998;9.116;2023-12-22T06:19:52;9.67;;;3.07;;
33327;SDS011;19692;52.998;9.116;2023-12-22T06:22:17;10.87;;;3.37;;
33327;SDS011;19692;52.998;9.116;2023-12-22T06:24:46;9.03;;;2.43;;
33327;SDS011;19692;52.998;9.116;2023-12-22T06:27:12;10.97;;;2.30;;
33327;SDS011;19692;52.998;9.116;2023-12-22T06:29:38;14.57;;;2.60;;
33327;SDS011;19692;52.998;9.116;2023-12-22T06:32:04;9.83;;;3.33;;
33327;SDS011;19692;52.998;9.116;2023-12-22T06:34:31;8.97;;;2.03;;
33327;SDS011;19692;52.998;9.116;2023-12-22T06:36:57;5.63;;;2.57;;
33327;SDS011;19692;52.998;9.116;2023-12-22T06:39:23;5.60;;;2.00;;
33327;SDS011;19692;52.998;9.116;2023-12-22T06:41:48;10.20;;;2.60;;
33327;SDS011;19692;52.998;9.116;2023-12-22T06:44:14;5.57;;;1.90;;
33327;SDS011;19692;52.998;9.116;2023-12-22T06:46:40;6.87;;;2.37;;
33327;SDS011;19692;52.998;9.116;2023-12-22T06:49:05;4.33;;;1.90;;
33327;SDS011;19692;52.998;9.116;2023-12-22T06:51:31;7.17;;;2.00;;
33327;SDS011;19692;52.998;9.116;2023-12-22T06:54:00;8.07;;;2.40;;
33327;SDS011;19692;52.998;9.116;2023-12-22T06:56:28;9.67;;;2.30;;
33327;SDS011;19692;52.998;9.116;2023-12-22T06:59:00;8.80;;;2.10;;
33327;SDS011;19692;52.998;9.116;2023-12-22T07:01:32;5.83;;;2.23;;
33327;SDS011;19692;52.998;9.116;2023-12-22T07:04:00;8.83;;;2.50;;
33327;SDS011;19692;52.998;9.116;2023-12-22T07:06:31;17.83;;;2.93;;
33327;SDS011;19692;52.998;9.116;2023-12-22T07:11:58;8.67;;;2.33;;
33327;SDS011;19692;52.998;9.116;2023-12-22T07:14:23;14.47;;;2.90;;
33327;SDS011;19692;52.998;9.116;2023-12-22T07:16:49;8.27;;;2.97;;
33327;SDS011;19692;52.998;9.116;2023-12-22T07:19:15;12.20;;;3.47;;
33327;SDS011;19692;52.998;9.116;2023-12-22T07:21:41;7.07;;;3.40;;
33327;SDS011;19692;52.998;9.116;2023-12-22T07:24:07;12.30;;;3.10;;
33327;SDS011;19692;52.998;9.116;2023-12-22T07:26:32;8.60;;;2.77;;
33327;SDS011;19692;52.998;9.116;2023-12-22T07:28:58;15.60;;;3.10;;
33327;SDS011;19692;52.998;9.116;2023-12-22T07:31:24;10.30;;;3.27;;
33327;SDS011;19692;52.998;9.116;2023-12-22T07:33:50;11.27;;;2.80;;
33327;SDS011;19692;52.998;9.116;2023-12-22T07:36:17;16.27;;;4.30;;
33327;SDS011;19692;52.998;9.116;2023-12-22T07:38:46;11.83;;;3.10;;
33327;SDS011;19692;52.998;9.116;2023-12-22T07:41:12;16.57;;;2.87;;
33327;SDS011;19692;52.998;9.116;2023-12-22T07:43:38;8.67;;;2.67;;
33327;SDS011;19692;52.998;9.116;2023-12-22T07:46:03;19.70;;;4.00;;
33327;SDS011;19692;52.998;9.116;2023-12-22T07:48:29;14.20;;;3.73;;
33327;SDS011;19692;52.998;9.116;2023-12-22T07:50:55;15.07;;;4.00;;
33327;SDS011;19692;52.998;9.116;2023-12-22T07:53:21;22.83;;;4.63;;
33327;SDS011;19692;52.998;9.116;2023-12-22T07:55:46;18.40;;;4.57;;
33327;SDS011;19692;52.998;9.116;2023-12-22T07:58:13;17.77;;;5.47;;
33327;SDS011;19692;52.998;9.116;2023-12-22T08:00:39;17.90;;;3.67;;
33327;SDS011;19692;52.998;9.116;2023-12-22T08:03:04;17.53;;;4.43;;
33327;SDS011;19692;52.998;9.116;2023-12-22T08:05:30;18.60;;;4.43;;
33327;SDS011;19692;52.998;9.116;2023-12-22T08:07:56;19.70;;;5.23;;
33327;SDS011;19692;52.998;9.116;2023-12-22T08:10:22;22.70;;;5.23;;
33327;SDS011;19692;52.998;9.116;2023-12-22T08:12:48;20.10;;;4.80;;
33327;SDS011;19692;52.998;9.116;2023-12-22T08:15:13;29.30;;;7.27;;
33327;SDS011;19692;52.998;9.116;2023-12-22T08:17:46;23.97;;;5.03;;
33327;SDS011;19692;52.998;9.116;2023-12-22T08:20:18;14.10;;;4.27;;
33327;SDS011;19692;52.998;9.116;2023-12-22T08:22:45;21.00;;;5.07;;
33327;SDS011;19692;52.998;9.116;2023-12-22T08:25:12;29.17;;;4.97;;
33327;SDS011;19692;52.998;9.116;2023-12-22T08:27:38;22.20;;;5.30;;
33327;SDS011;19692;52.998;9.116;2023-12-22T08:30:04;20.23;;;5.17;;
33327;SDS011;19692;52.998;9.116;2023-12-22T08:32:32;24.67;;;4.80;;
33327;SDS011;19692;52.998;9.116;2023-12-22T08:34:58;18.27;;;4.20;;
33327;SDS011;19692;52.998;9.116;2023-12-22T08:37:24;21.73;;;4.60;;
33327;SDS011;19692;52.998;9.116;2023-12-22T08:39:49;18.97;;;4.10;;
33327;SDS011;19692;52.998;9.116;2023-12-22T08:42:16;14.07;;;3.80;;
33327;SDS011;19692;52.998;9.116;2023-12-22T08:44:42;21.13;;;5.37;;
33327;SDS011;19692;52.998;9.116;2023-12-22T08:47:08;12.60;;;3.40;;
33327;SDS011;19692;52.998;9.116;2023-12-22T08:49:34;16.10;;;4.73;;
33327;SDS011;19692;52.998;9.116;2023-12-22T08:51:59;13.27;;;3.47;;
33327;SDS011;19692;52.998;9.116;2023-12-22T08:54:26;20.83;;;3.47;;
33327;SDS011;19692;52.998;9.116;2023-12-22T08:56:52;7.20;;;3.03;;
33327;SDS011;19692;52.998;9.116;2023-12-22T08:59:18;11.00;;;3.47;;
33327;SDS011;19692;52.998;9.116;2023-12-22T09:01:45;10.50;;;2.97;;
33327;SDS011;19692;52.998;9.116;2023-12-22T09:04:10;18.37;;;5.07;;
33327;SDS011;19692;52.998;9.116;2023-12-22T09:06:36;11.67;;;3.50;;
33327;SDS011;19692;52.998;9.116;2023-12-22T09:09:02;16.07;;;4.00;;
33327;SDS011;19692;52.998;9.116;2023-12-22T09:11:32;17.73;;;4.70;;
33327;SDS011;19692;52.998;9.116;2023-12-22T09:13:58;24.97;;;4.90;;
33327;SDS011;19692;52.998;9.116;2023-12-22T09:16:24;19.07;;;5.23;;
33327;SDS011;19692;52.998;9.116;2023-12-22T09:18:50;15.13;;;4.00;;
33327;SDS011;19692;52.998;9.116;2023-12-22T09:21:16;21.63;;;4.50;;
33327;SDS011;19692;52.998;9.116;2023-12-22T09:23:45;14.83;;;3.87;;
33327;SDS011;19692;52.998;9.116;2023-12-22T09:26:12;20.27;;;4.30;;
33327;SDS011;19692;52.998;9.116;2023-12-22T09:28:39;14.23;;;3.80;;
33327;SDS011;19692;52.998;9.116;2023-12-22T09:31:06;11.80;;;3.70;;
33327;SDS011;19692;52.998;9.116;2023-12-22T09:33:33;7.43;;;2.17;;
33327;SDS011;19692;52.998;9.116;2023-12-22T09:35:59;7.97;;;2.77;;
33327;SDS011;19692;52.998;9.116;2023-12-22T09:38:25;13.10;;;2.60;;
33327;SDS011;19692;52.998;9.116;2023-12-22T09:40:50;10.17;;;2.70;;
33327;SDS011;19692;52.998;9.116;2023-12-22T09:43:16;7.37;;;2.30;;
33327;SDS011;19692;52.998;9.116;2023-12-22T09:45:48;11.63;;;2.57;;
33327;SDS011;19692;52.998;9.116;2023-12-22T09:48:15;6.43;;;2.13;;
33327;SDS011;19692;52.998;9.116;2023-12-22T09:50:43;6.03;;;2.90;;
33327;SDS011;19692;52.998;9.116;2023-12-22T09:53:10;11.43;;;2.40;;
33327;SDS011;19692;52.998;9.116;2023-12-22T09:55:45;8.57;;;2.30;;
33327;SDS011;19692;52.998;9.116;2023-12-22T09:58:12;9.33;;;2.43;;
33327;SDS011;19692;52.998;9.116;2023-12-22T10:00:39;13.13;;;3.33;;
33327;SDS011;19692;52.998;9.116;2023-12-22T10:03:06;8.40;;;2.53;;
33327;SDS011;19692;52.998;9.116;2023-12-22T10:05:34;8.30;;;2.50;;
33327;SDS011;19692;52.998;9.116;2023-12-22T10:08:00;14.30;;;2.57;;
33327;SDS011;19692;52.998;9.116;2023-12-22T10:10:28;9.77;;;2.73;;
33327;SDS011;19692;52.998;9.116;2023-12-22T10:12:55;13.67;;;3.07;;
33327;SDS011;19692;52.998;9.116;2023-12-22T10:15:22;8.20;;;3.03;;
33327;SDS011;19692;52.998;9.116;2023-12-22T10:17:54;6.37;;;2.60;;
33327;SDS011;19692;52.998;9.116;2023-12-22T10:20:20;10.20;;;3.30;;
33327;SDS011;19692;52.998;9.116;2023-12-22T10:22:47;8.00;;;2.53;;
33327;SDS011;19692;52.998;9.116;2023-12-22T10:25:18;6.87;;;2.57;;
33327;SDS011;19692;52.998;9.116;2023-12-22T10:27:46;10.10;;;3.87;;
33327;SDS011;19692;52.998;9.116;2023-12-22T10:30:12;9.40;;;3.03;;
33327;SDS011;19692;52.998;9.116;2023-12-22T10:32:40;9.77;;;3.20;;
33327;SDS011;19692;52.998;9.116;2023-12-22T10:35:07;8.60;;;3.10;;
33327;SDS011;19692;52.998;9.116;2023-12-22T10:37:34;11.83;;;2.90;;
33327;SDS011;19692;52.998;9.116;2023-12-22T10:39:59;9.60;;;3.07;;
33327;SDS011;19692;52.998;9.116;2023-12-22T10:42:29;9.67;;;2.80;;
33327;SDS011;19692;52.998;9.116;2023-12-22T10:44:55;7.23;;;2.50;;
33327;SDS011;19692;52.998;9.116;2023-12-22T10:47:22;7.97;;;2.53;;
33327;SDS011;19692;52.998;9.116;2023-12-22T10:49:48;4.97;;;1.93;;
33327;SDS011;19692;52.998;9.116;2023-12-22T10:52:18;6.53;;;2.83;;
33327;SDS011;19692;52.998;9.116;2023-12-22T10:54:45;13.47;;;2.63;;
33327;SDS011;19692;52.998;9.116;2023-12-22T10:57:11;9.97;;;2.73;;
33327;SDS011;19692;52.998;9.116;2023-12-22T10:59:43;11.20;;;3.73;;
33327;SDS011;19692;52.998;9.116;2023-12-22T11:02:14;10.47;;;2.43;;
33327;SDS011;19692;52.998;9.116;2023-12-22T11:04:45;9.23;;;3.43;;
33327;SDS011;19692;52.998;9.116;2023-12-22T11:07:26;7.23;;;2.23;;
33327;SDS011;19692;52.998;9.116;2023-12-22T11:09:56;8.27;;;2.73;;
33327;SDS011;19692;52.998;9.116;2023-12-22T11:12:29;9.40;;;2.90;;
33327;SDS011;19692;52.998;9.116;2023-12-22T11:14:59;11.23;;;3.80;;
33327;SDS011;19692;52.998;9.116;2023-12-22T11:17:28;9.63;;;2.90;;
33327;SDS011;19692;52.998;9.116;2023-12-22T11:19:57;10.50;;;3.23;;
33327;SDS011;19692;52.998;9.116;2023-12-22T11:22:24;7.43;;;2.87;;
33327;SDS011;19692;52.998;9.116;2023-12-22T11:24:51;14.57;;;3.27;;
33327;SDS011;19692;52.998;9.116;2023-12-22T11:27:17;11.80;;;3.60;;
33327;SDS011;19692;52.998;9.116;2023-12-22T11:29:48;11.23;;;3.33;;
33327;SDS011;19692;52.998;9.116;2023-12-22T11:32:16;12.03;;;3.67;;
33327;SDS011;19692;52.998;9.116;2023-12-22T11:34:44;11.83;;;3.70;;
33327;SDS011;19692;52.998;9.116;2023-12-22T11:37:12;15.77;;;4.53;;
33327;SDS011;19692;52.998;9.116;2023-12-22T11:39:42;17.33;;;4.40;;
33327;SDS011;19692;52.998;9.116;2023-12-22T11:42:11;13.27;;;3.87;;
33327;SDS011;19692;52.998;9.116;2023-12-22T11:44:42;12.83;;;4.07;;
33327;SDS011;19692;52.998;9.116;2023-12-22T11:47:09;14.40;;;3.93;;
33327;SDS011;19692;52.998;9.116;2023-12-22T11:49:36;20.33;;;3.70;;
33327;SDS011;19692;52.998;9.116;2023-12-22T11:52:15;19.13;;;4.80;;
33327;SDS011;19692;52.998;9.116;2023-12-22T11:54:49;15.03;;;2.93;;
33327;SDS011;19692;52.998;9.116;2023-12-22T12:00:02;8.70;;;3.00;;
33327;SDS011;19692;52.998;9.116;2023-12-22T12:02:54;14.47;;;3.40;;
33327;SDS011;19692;52.998;9.116;2023-12-22T12:05:20;14.17;;;4.00;;
33327;SDS011;19692;52.998;9.116;2023-12-22T12:07:48;15.77;;;4.90;;
33327;SDS011;19692;52.998;9.116;2023-12-22T12:13:08;8.37;;;3.50;;
33327;SDS011;19692;52.998;9.116;2023-12-22T12:15:35;12.13;;;3.87;;
33327;SDS011;19692;52.998;9.116;2023-12-22T12:18:02;9.87;;;3.23;;
33327;SDS011;19692;52.998;9.116;2023-12-22T12:20:29;13.53;;;3.33;;
33327;SDS011;19692;52.998;9.116;2023-12-22T12:22:55;16.53;;;3.47;;
33327;SDS011;19692;52.998;9.116;2023-12-22T12:25:21;13.30;;;3.10;;
33327;SDS011;19692;52.998;9.116;2023-12-22T12:28:00;11.23;;;3.47;;
33327;SDS011;19692;52.998;9.116;2023-12-22T12:30:27;11.33;;;3.43;;
33327;SDS011;19692;52.998;9.116;2023-12-22T12:32:53;15.47;;;3.63;;
33327;SDS011;19692;52.998;9.116;2023-12-22T12:35:21;15.63;;;3.47;;
33327;SDS011;19692;52.998;9.116;2023-12-22T12:37:49;9.90;;;3.43;;
33327;SDS011;19692;52.998;9.116;2023-12-22T12:40:16;12.17;;;3.60;;
33327;SDS011;19692;52.998;9.116;2023-12-22T12:42:46;16.43;;;4.37;;
33327;SDS011;19692;52.998;9.116;2023-12-22T12:45:12;16.07;;;4.10;;
33327;SDS011;19692;52.998;9.116;2023-12-22T12:47:37;10.63;;;3.23;;
33327;SDS011;19692;52.998;9.116;2023-12-22T12:50:03;14.60;;;3.67;;
33327;SDS011;19692;52.998;9.116;2023-12-22T12:52:29;13.67;;;3.80;;
33327;SDS011;19692;52.998;9.116;2023-12-22T12:54:55;12.63;;;3.50;;
33327;SDS011;19692;52.998;9.116;2023-12-22T12:57:23;15.03;;;3.37;;
33327;SDS011;19692;52.998;9.116;2023-12-22T12:59:49;13.23;;;3.47;;
33327;SDS011;19692;52.998;9.116;2023-12-22T13:02:16;9.63;;;3.20;;
33327;SDS011;19692;52.998;9.116;2023-12-22T13:04:42;11.23;;;3.33;;
33327;SDS011;19692;52.998;9.116;2023-12-22T13:07:08;12.77;;;3.17;;
33327;SDS011;19692;52.998;9.116;2023-12-22T13:09:38;15.10;;;4.30;;
33327;SDS011;19692;52.998;9.116;2023-12-22T13:12:07;14.90;;;3.30;;
33327;SDS011;19692;52.998;9.116;2023-12-22T13:14:33;12.43;;;2.97;;
33327;SDS011;19692;52.998;9.116;2023-12-22T13:16:59;10.57;;;3.13;;
33327;SDS011;19692;52.998;9.116;2023-12-22T13:19:25;16.63;;;3.80;;
33327;SDS011;19692;52.998;9.116;2023-12-22T13:21:55;12.03;;;2.63;;
33327;SDS011;19692;52.998;9.116;2023-12-22T13:24:21;12.17;;;3.37;;
33327;SDS011;19692;52.998;9.116;2023-12-22T13:26:57;13.80;;;3.33;;
33327;SDS011;19692;52.998;9.116;2023-12-22T13:29:45;16.43;;;3.40;;
33327;SDS011;19692;52.998;9.116;2023-12-22T13:32:19;14.43;;;3.33;;
33327;SDS011;19692;52.998;9.116;2023-12-22T13:34:50;15.30;;;4.07;;
33327;SDS011;19692;52.998;9.116;2023-12-22T13:37:18;9.57;;;3.67;;
33327;SDS011;19692;52.998;9.116;2023-12-22T13:39:44;11.53;;;3.13;;
33327;SDS011;19692;52.998;9.116;2023-12-22T13:42:17;12.03;;;3.33;;
33327;SDS011;19692;52.998;9.116;2023-12-22T13:44:46;7.57;;;2.97;;
33327;SDS011;19692;52.998;9.116;2023-12-22T13:47:18;13.23;;;3.37;;
33327;SDS011;19692;52.998;9.116;2023-12-22T13:49:47;13.43;;;3.27;;
33327;SDS011;19692;52.998;9.116;2023-12-22T13:52:26;8.60;;;3.50;;
33327;SDS011;19692;52.998;9.116;2023-12-22T13:54:53;14.50;;;3.67;;
33327;SDS011;19692;52.998;9.116;2023-12-22T13:57:22;16.50;;;4.53;;
33327;SDS011;19692;52.998;9.116;2023-12-22T13:59:48;13.03;;;5.00;;
33327;SDS011;19692;52.998;9.116;2023-12-22T14:02:14;17.70;;;5.27;;
33327;SDS011;19692;52.998;9.116;2023-12-22T14:04:39;11.87;;;4.00;;
33327;SDS011;19692;52.998;9.116;2023-12-22T14:07:06;12.07;;;3.10;;
33327;SDS011;19692;52.998;9.116;2023-12-22T14:09:31;8.33;;;2.53;;
33327;SDS011;19692;52.998;9.116;2023-12-22T14:11:59;3.33;;;1.83;;
33327;SDS011;19692;52.998;9.116;2023-12-22T14:14:25;2.57;;;1.60;;
33327;SDS011;19692;52.998;9.116;2023-12-22T14:16:50;2.63;;;2.17;;
33327;SDS011;19692;52.998;9.116;2023-12-22T14:19:16;3.23;;;1.93;;
33327;SDS011;19692;52.998;9.116;2023-12-22T14:21:42;4.20;;;1.87;;
33327;SDS011;19692;52.998;9.116;2023-12-22T14:24:08;5.07;;;2.37;;
33327;SDS011;19692;52.998;9.116;2023-12-22T14:26:51;2.50;;;1.70;;
33327;SDS011;19692;52.998;9.116;2023-12-22T14:29:21;3.63;;;1.70;;
33327;SDS011;19692;52.998;9.116;2023-12-22T14:31:50;5.03;;;2.00;;
33327;SDS011;19692;52.998;9.116;2023-12-22T14:34:17;5.60;;;2.20;;
33327;SDS011;19692;52.998;9.116;2023-12-22T14:36:43;6.00;;;2.80;;
33327;SDS011;19692;52.998;9.116;2023-12-22T14:39:10;4.97;;;2.23;;
33327;SDS011;19692;52.998;9.116;2023-12-22T14:41:38;4.57;;;2.13;;
33327;SDS011;19692;52.998;9.116;2023-12-22T14:44:06;3.87;;;1.63;;
33327;SDS011;19692;52.998;9.116;2023-12-22T14:46:31;3.17;;;1.80;;
33327;SDS011;19692;52.998;9.116;2023-12-22T14:48:57;4.53;;;1.53;;
33327;SDS011;19692;52.998;9.116;2023-12-22T14:51:23;5.27;;;1.67;;